Terminal Aerodrome Forecast
Issued by NWS Quad Cities IA IL

Home | Current Version | Previous Version | Text Only | Print | Product List | Glossary On
Versions: 1 2 3 4 5 6 7 8 9 10 11 12 13 14 15 16
569
FTUS43 KDVN 282335
TAFMLI
TAF
KMLI 282335Z 2900/2924 30010KT P6SM SCT040
     FM290400 33006KT P6SM SCT025 BKN060
     FM290800 34005KT 3SM BR BKN009 OVC015
     FM291600 35007KT P6SM BKN025
     FM291900 01011KT P6SM BKN035=

USA.gov is the U.S. government's official web portal to all federal, state and local government web resources and services.